Terminal Aerodrome Forecast
Issued by NWS Flagstaff, AZ

Home | Current Version | Previous Version | Text Only | Print | Product List | Glossary On
Versions: 1 2 3 4 5 6 7 8 9 10 11 12 13 14 15 16
000
FTUS45 KFGZ 281422 AAA
TAFINW
TAF AMD
KINW 281422Z 2814/2912 31012KT P6SM BKN060 BKN100
     FM281900 31022G32KT P6SM SCT060 BKN100
     FM290200 30010G20KT P6SM BKN100=

USA.gov is the U.S. government's official web portal to all federal, state and local government web resources and services.